Погода Редкунына неделю

Витебская область, Белоруссия

21 - 27 мая
  • 21мая
    Сегодня
    +11°
    +24°
    Небольшая облачность
    ВремяПогодаТемператураВлажностьДавлениеВетер, м/сВероятность осадков
    00:00Небольшая облачность+13°C89 %753 мм2.2 м/с2 %
    03:00Ясно и безоблачно+11°C94 %753 мм1.6 м/с2 %
    06:00Ясно и безоблачно+12°C95 %754 мм2.0 м/с2 %
    09:00Ясно и безоблачно+19°C73 %754 мм1.7 м/с2 %
    12:00Практически безоблачно+23°C55 %754 мм3.0 м/с3 %
    15:00Небольшая облачность+23°C50 %754 мм3.5 м/с16 %
    18:00Небольшая облачность, ливень+20°C71 %754 мм2.7 м/с49 %
    21:00Облачно с прояснениями+18°C80 %754 мм1.9 м/с32 %
  • 22мая
    Среда
    +12°
    +25°
    Облачно с прояснениями
    ВремяПогодаТемператураВлажностьДавлениеВетер, м/сВероятность осадков
    00:00Облачно с прояснениями+15°C89 %754 мм3.1 м/с4 %
    03:00Облачно с прояснениями+13°C90 %755 мм3.9 м/с2 %
    06:00Ясно и безоблачно+12°C71 %755 мм4.4 м/с2 %
    09:00Ясно и безоблачно+17°C61 %755 мм4.3 м/с2 %
    12:00Ясно и безоблачно+23°C57 %755 мм4.8 м/с3 %
    15:00Облачно с прояснениями+24°C53 %754 мм4.4 м/с30 %
    18:00Облачно с прояснениями, ливень+21°C70 %755 мм3.3 м/с60 %
    21:00Небольшая облачность+19°C76 %755 мм3.5 м/с8 %
  • 23мая
    Четверг
    +11°
    +24°
    Практически безоблачно
    ВремяПогодаТемператураВлажностьДавлениеВетер, м/сВероятность осадков
    00:00Ясно и безоблачно+15°C89 %756 мм2.9 м/с2 %
    03:00Ясно и безоблачно+13°C93 %756 мм3.6 м/с1 %
    06:00Ясно и безоблачно+13°C82 %757 мм4.6 м/с1 %
    09:00Ясно и безоблачно+18°C61 %758 мм5.0 м/с2 %
    12:00Ясно и безоблачно+22°C55 %758 мм5.9 м/с12 %
    15:00Практически безоблачно+23°C46 %758 мм6.5 м/с23 %
    18:00Ясно и безоблачно+23°C45 %758 мм5.5 м/с22 %
    21:00Небольшая облачность+20°C56 %758 мм4.6 м/с8 %
  • 24мая
    Пятница
    +11°
    +24°
    Ясно и безоблачно
    ВремяПогодаТемператураВлажностьДавлениеВетер, м/сВероятность осадков
    00:00Облачно с прояснениями+16°C57 %759 мм5.2 м/с2 %
    03:00Ясно и безоблачно+13°C61 %760 мм4.6 м/с2 %
    06:00Ясно и безоблачно+12°C65 %760 мм4.4 м/с2 %
    09:00Ясно и безоблачно+17°C59 %761 мм4.6 м/с2 %
    12:00Ясно и безоблачно+21°C53 %761 мм4.8 м/с2 %
    15:00Ясно и безоблачно+23°C50 %761 мм5.1 м/с9 %
    18:00Ясно и безоблачно+23°C50 %760 мм4.8 м/с10 %
    21:00Ясно и безоблачно+20°C61 %760 мм3.3 м/с3 %
  • 25мая
    Суббота
    +10°
    +25°
    Ясно и безоблачно
    ВремяПогодаТемператураВлажностьДавлениеВетер, м/сВероятность осадков
    00:00Ясно и безоблачно+15°C70 %761 мм3.9 м/с2 %
    03:00Ясно и безоблачно+13°C78 %761 мм3.4 м/с2 %
    06:00Ясно и безоблачно+12°C79 %761 мм3.6 м/с2 %
    09:00Ясно и безоблачно+19°C63 %761 мм3.4 м/с2 %
    12:00Ясно и безоблачно+23°C50 %761 мм3.8 м/с5 %
    15:00Ясно и безоблачно+25°C42 %760 мм4.4 м/с18 %
    18:00Ясно и безоблачно+25°C43 %759 мм3.8 м/с27 %
    21:00Ясно и безоблачно+20°C63 %759 мм2.0 м/с15 %
Мы используем cookies
Соглашаюсь